Time;durP1;ratioP1;P1;durP2;ratioP2;P2;SDS_P1;SDS_P2;PMS_P1;PMS_P2;Temp;Humidity;BMP_temperature;BMP_pressure;BME280_temperature;BME280_humidity;BME280_pressure;Samples;Min_cycle;Max_cycle;Signal;HPM_P1;HPM_P2
2023/04/08 00:01:23;;;;;;;;;;;5.10;99.90;;;;;;5003755;28;19957;-68
2023/04/08 00:03:51;;;;;;;;;;;5.10;99.90;;;;;;5003774;28;19953;-68
2023/04/08 00:06:17;;;;;;;;;;;5.00;99.90;;;;;;5002907;28;19922;-68
2023/04/08 00:08:44;;;;;;;;;;;5.00;99.90;;;;;;5003943;28;19997;-67
2023/04/08 00:11:11;;;;;;;;;;;4.90;99.90;;;;;;5003654;28;19993;-68
2023/04/08 00:13:37;;;;;;;;;;;4.90;99.90;;;;;;5003685;28;19993;-68
2023/04/08 00:16:04;;;;;;;;;;;4.90;99.90;;;;;;5002767;28;20008;-68
2023/04/08 00:18:30;;;;;;;;;;;4.90;99.90;;;;;;5003321;28;19989;-67
2023/04/08 00:20:59;;;;;;;;;;;4.80;99.90;;;;;;5003935;28;19922;-68
2023/04/08 00:23:25;;;;;;;;;;;4.70;99.90;;;;;;5003609;28;19921;-69
2023/04/08 00:25:52;;;;;;;;;;;4.60;99.90;;;;;;5003088;28;19929;-68
2023/04/08 00:28:19;;;;;;;;;;;4.70;99.90;;;;;;5003626;28;19953;-67
2023/04/08 00:30:45;;;;;;;;;;;4.70;99.90;;;;;;5003656;28;19981;-68
2023/04/08 00:33:12;;;;;;;;;;;4.70;99.90;;;;;;5003365;28;19969;-68
2023/04/08 00:35:39;;;;;;;;;;;4.70;99.90;;;;;;5002563;28;20264;-69
2023/04/08 00:38:07;;;;;;;;;;;4.70;99.90;;;;;;5003250;28;19998;-68
2023/04/08 00:40:34;;;;;;;;;;;4.70;99.90;;;;;;5003490;28;19922;-68
2023/04/08 00:43:01;;;;;;;;;;;4.70;99.90;;;;;;5003246;28;19928;-67
2023/04/08 00:45:27;;;;;;;;;;;4.70;99.90;;;;;;5003555;28;19984;-68
2023/04/08 00:47:54;;;;;;;;;;;4.70;99.90;;;;;;5002681;28;19921;-68
2023/04/08 00:50:21;;;;;;;;;;;4.80;99.90;;;;;;5003634;28;19922;-68
2023/04/08 00:52:47;;;;;;;;;;;4.70;99.90;;;;;;5000424;28;19965;-68
2023/04/08 00:55:16;;;;;;;;;;;4.50;99.90;;;;;;5003397;28;19921;-68
2023/04/08 00:57:43;;;;;;;;;;;4.40;99.90;;;;;;5002314;28;19922;-68
2023/04/08 01:00:10;;;;;;;;;;;4.40;99.90;;;;;;5003101;28;19922;-69
2023/04/08 01:02:42;;;;;;;;;;;4.30;99.90;;;;;;5003404;28;19985;-68
2023/04/08 01:05:13;;;;;;;;;;;4.30;99.90;;;;;;5004041;28;19926;-68
2023/04/08 01:07:43;;;;;;;;;;;4.30;99.90;;;;;;5006714;28;19928;-68
2023/04/08 01:10:12;;;;;;;;;;;4.30;99.90;;;;;;5007163;28;19964;-68
2023/04/08 01:12:48;;;;;;;;;;;4.40;99.90;;;;;;5007050;28;20260;-68
2023/04/08 01:15:15;;;;;;;;;;;4.40;99.90;;;;;;5006494;28;19922;-68
2023/04/08 01:17:43;;;;;;;;;;;4.40;99.90;;;;;;5006554;28;19922;-68
2023/04/08 01:20:10;;;;;;;;;;;4.40;99.90;;;;;;5007225;28;19936;-68
2023/04/08 01:22:41;;;;;;;;;;;4.40;99.90;;;;;;5006736;28;19921;-68
2023/04/08 01:25:11;;;;;;;;;;;4.50;99.90;;;;;;4998788;28;19970;-68
2023/04/08 01:27:42;;;;;;;;;;;4.40;99.90;;;;;;5002443;28;19928;-68
2023/04/08 01:30:09;;;;;;;;;;;4.40;99.90;;;;;;5006666;28;19928;-68
2023/04/08 01:32:36;;;;;;;;;;;4.30;99.90;;;;;;5006854;28;20113;-68
2023/04/08 01:35:03;;;;;;;;;;;4.40;99.90;;;;;;4999620;28;19990;-68
2023/04/08 01:37:30;;;;;;;;;;;4.30;99.90;;;;;;4998620;28;19928;-68
2023/04/08 01:39:57;;;;;;;;;;;4.40;99.90;;;;;;5006763;28;19922;-68
2023/04/08 01:42:25;;;;;;;;;;;4.40;99.90;;;;;;5006124;28;20202;-68
2023/04/08 01:44:55;;;;;;;;;;;4.40;99.90;;;;;;5006238;28;19922;-68
2023/04/08 01:47:22;;;;;;;;;;;4.30;99.90;;;;;;5006178;28;19922;-68
2023/04/08 01:49:50;;;;;;;;;;;4.30;99.90;;;;;;5006183;28;19922;-66
2023/04/08 01:52:19;;;;;;;;;;;4.30;99.90;;;;;;5003362;28;19928;-68
2023/04/08 01:54:46;;;;;;;;;;;4.30;99.90;;;;;;5006195;28;19922;-68
2023/04/08 01:57:15;;;;;;;;;;;4.30;99.90;;;;;;5005140;28;19922;-68
2023/04/08 01:59:42;;;;;;;;;;;4.30;99.90;;;;;;5006006;28;20098;-68
2023/04/08 02:02:10;;;;;;;;;;;4.30;99.90;;;;;;5006333;28;19928;-68
2023/04/08 02:04:38;;;;;;;;;;;4.30;99.90;;;;;;5006196;28;20158;-69
2023/04/08 02:07:05;;;;;;;;;;;4.30;99.90;;;;;;5005558;28;19921;-68
2023/04/08 02:09:32;;;;;;;;;;;4.30;99.90;;;;;;5006079;28;19945;-68
2023/04/08 02:11:58;;;;;;;;;;;4.30;99.90;;;;;;5005862;28;20253;-68
2023/04/08 02:14:26;;;;;;;;;;;4.30;99.90;;;;;;5005536;28;19921;-68
2023/04/08 02:16:53;;;;;;;;;;;4.20;99.90;;;;;;5004863;28;19925;-68
2023/04/08 02:19:24;;;;;;;;;;;4.10;99.90;;;;;;5006485;28;19921;-68
2023/04/08 02:21:55;;;;;;;;;;;4.10;99.90;;;;;;5006319;28;19957;-67
2023/04/08 02:24:22;;;;;;;;;;;4.10;99.90;;;;;;5004438;28;19922;-68
2023/04/08 02:26:49;;;;;;;;;;;4.10;99.90;;;;;;5004859;28;19981;-68
2023/04/08 02:29:17;;;;;;;;;;;4.20;99.90;;;;;;5005644;28;19922;-68
2023/04/08 02:31:44;;;;;;;;;;;4.20;99.90;;;;;;5005519;28;19921;-68
2023/04/08 02:34:11;;;;;;;;;;;4.20;99.90;;;;;;5005609;28;19922;-67
2023/04/08 02:36:39;;;;;;;;;;;4.10;99.90;;;;;;5002028;28;20033;-68
2023/04/08 02:39:06;;;;;;;;;;;4.10;99.90;;;;;;5004668;28;19989;-70
2023/04/08 02:41:33;;;;;;;;;;;4.00;99.90;;;;;;5005507;28;19984;-68
2023/04/08 02:43:59;;;;;;;;;;;4.10;99.90;;;;;;5005074;28;19981;-68
2023/04/08 02:46:26;;;;;;;;;;;4.00;99.90;;;;;;5004434;28;20393;-68
2023/04/08 02:48:53;;;;;;;;;;;4.10;99.90;;;;;;5005512;28;19985;-68
2023/04/08 02:51:19;;;;;;;;;;;4.10;99.90;;;;;;5005284;28;19928;-68
2023/04/08 02:53:49;;;;;;;;;;;4.20;99.90;;;;;;5001761;28;19993;-68
2023/04/08 02:56:15;;;;;;;;;;;4.10;99.90;;;;;;5003934;28;19921;-68
2023/04/08 02:58:42;;;;;;;;;;;4.10;99.90;;;;;;5004992;28;19984;-68
2023/04/08 03:01:08;;;;;;;;;;;4.10;99.90;;;;;;5004795;28;19981;-68
2023/04/08 03:03:35;;;;;;;;;;;4.00;99.90;;;;;;5005178;28;19977;-68
2023/04/08 03:06:02;;;;;;;;;;;4.00;99.90;;;;;;5004845;28;20113;-68
2023/04/08 03:08:28;;;;;;;;;;;4.10;99.90;;;;;;5005116;28;19961;-68
2023/04/08 03:10:56;;;;;;;;;;;4.10;99.90;;;;;;5003981;28;19981;-67
2023/04/08 03:13:23;;;;;;;;;;;4.10;99.90;;;;;;5004683;28;20194;-68
2023/04/08 03:15:49;;;;;;;;;;;4.10;99.90;;;;;;5004546;28;19992;-68
2023/04/08 03:18:16;;;;;;;;;;;4.10;99.90;;;;;;5004721;28;19985;-68
2023/04/08 03:20:43;;;;;;;;;;;4.10;99.90;;;;;;5004466;28;19989;-68
2023/04/08 03:23:09;;;;;;;;;;;4.10;99.90;;;;;;5004597;28;19957;-68
2023/04/08 03:25:36;;;;;;;;;;;4.10;99.90;;;;;;5004934;28;20005;-68
2023/04/08 03:28:04;;;;;;;;;;;4.20;99.90;;;;;;5003461;28;19928;-68
2023/04/08 03:30:31;;;;;;;;;;;4.20;99.90;;;;;;5004456;28;19922;-68
2023/04/08 03:32:57;;;;;;;;;;;4.20;99.90;;;;;;5004768;28;20232;-68
2023/04/08 03:35:24;;;;;;;;;;;4.10;99.90;;;;;;5003624;28;19953;-68
2023/04/08 03:37:51;;;;;;;;;;;4.10;99.90;;;;;;5004291;28;19957;-68
2023/04/08 03:40:17;;;;;;;;;;;4.10;99.90;;;;;;5004761;28;19956;-68
2023/04/08 03:42:44;;;;;;;;;;;4.10;99.90;;;;;;5004181;28;19925;-68
2023/04/08 03:45:12;;;;;;;;;;;4.20;99.90;;;;;;5002901;28;19992;-68
2023/04/08 03:47:39;;;;;;;;;;;4.20;99.90;;;;;;5004039;28;19922;-68
2023/04/08 03:50:06;;;;;;;;;;;4.20;99.90;;;;;;5004416;28;19928;-68
2023/04/08 03:52:32;;;;;;;;;;;4.20;99.90;;;;;;5004624;28;19928;-68
2023/04/08 03:54:59;;;;;;;;;;;4.30;99.90;;;;;;5003902;28;20296;-68
2023/04/08 03:57:26;;;;;;;;;;;4.30;99.90;;;;;;5003693;28;19929;-68
2023/04/08 03:59:52;;;;;;;;;;;4.30;99.90;;;;;;5004399;28;20001;-68
2023/04/08 04:02:20;;;;;;;;;;;4.30;99.90;;;;;;4984930;28;19922;-68
2023/04/08 04:04:47;;;;;;;;;;;4.30;99.90;;;;;;4984592;28;20210;-68
2023/04/08 04:07:14;;;;;;;;;;;4.40;99.90;;;;;;4996613;28;19928;-68
2023/04/08 04:09:40;;;;;;;;;;;4.30;99.90;;;;;;5004084;28;20226;-68
2023/04/08 04:12:07;;;;;;;;;;;4.40;99.90;;;;;;5004134;28;19988;-68
2023/04/08 04:14:33;;;;;;;;;;;4.30;99.90;;;;;;5004408;28;19989;-68
2023/04/08 04:17:00;;;;;;;;;;;4.30;99.90;;;;;;5003777;28;19996;-68
2023/04/08 04:19:31;;;;;;;;;;;4.30;99.90;;;;;;5004112;28;19984;-68
2023/04/08 04:21:57;;;;;;;;;;;4.20;99.90;;;;;;5002343;28;20202;-68
2023/04/08 04:24:24;;;;;;;;;;;4.10;99.90;;;;;;5003842;28;19996;-68
2023/04/08 04:26:51;;;;;;;;;;;4.10;99.90;;;;;;5003452;28;19922;-68
2023/04/08 04:29:17;;;;;;;;;;;4.10;99.90;;;;;;5004057;28;19989;-68
2023/04/08 04:31:44;;;;;;;;;;;4.00;99.90;;;;;;5003605;28;20157;-68
2023/04/08 04:34:11;;;;;;;;;;;4.00;99.90;;;;;;5003995;28;19933;-67
2023/04/08 04:36:39;;;;;;;;;;;4.10;99.90;;;;;;4988086;28;19922;-68
2023/04/08 04:39:06;;;;;;;;;;;4.00;99.90;;;;;;4987728;28;19950;-68
2023/04/08 04:41:34;;;;;;;;;;;4.00;99.90;;;;;;5007778;28;20255;-68
2023/04/08 04:44:00;;;;;;;;;;;4.00;99.90;;;;;;5007657;28;19925;-68
2023/04/08 04:46:27;;;;;;;;;;;4.10;99.90;;;;;;5007286;28;19936;-68
2023/04/08 04:48:54;;;;;;;;;;;4.00;99.90;;;;;;5007586;28;19985;-67
2023/04/08 04:51:20;;;;;;;;;;;4.10;99.90;;;;;;4988418;28;19953;-68
2023/04/08 04:53:50;;;;;;;;;;;4.10;99.90;;;;;;4998891;28;20261;-68
2023/04/08 04:56:17;;;;;;;;;;;4.10;99.90;;;;;;5007011;28;19979;-68
2023/04/08 04:58:43;;;;;;;;;;;4.00;99.90;;;;;;5007635;28;19928;-68
2023/04/08 05:01:10;;;;;;;;;;;4.00;99.90;;;;;;5007458;28;20185;-68
2023/04/08 05:03:36;;;;;;;;;;;4.00;99.90;;;;;;5007452;28;19949;-68
2023/04/08 05:06:03;;;;;;;;;;;4.00;99.90;;;;;;5007051;28;19970;-68
2023/04/08 05:08:30;;;;;;;;;;;4.00;99.90;;;;;;5007060;28;19928;-67
2023/04/08 05:11:00;;;;;;;;;;;4.00;99.90;;;;;;5007508;28;20015;-67
2023/04/08 05:13:27;;;;;;;;;;;4.00;99.90;;;;;;5006360;28;19922;-68
2023/04/08 05:15:54;;;;;;;;;;;3.90;99.90;;;;;;4995070;28;19922;-68
2023/04/08 05:18:20;;;;;;;;;;;3.90;99.90;;;;;;5004560;28;19988;-68
2023/04/08 05:20:47;;;;;;;;;;;3.90;99.90;;;;;;5007081;28;19928;-68
2023/04/08 05:23:14;;;;;;;;;;;4.00;99.90;;;;;;5006524;28;19993;-68
2023/04/08 05:25:41;;;;;;;;;;;4.00;99.90;;;;;;5006345;28;20161;-67
2023/04/08 05:28:09;;;;;;;;;;;4.00;99.90;;;;;;5003803;28;19981;-68
2023/04/08 05:30:41;;;;;;;;;;;4.00;99.90;;;;;;4985082;28;19928;-68
2023/04/08 05:33:08;;;;;;;;;;;4.10;99.90;;;;;;4987339;28;19922;-68
2023/04/08 05:35:35;;;;;;;;;;;4.10;99.90;;;;;;5002561;28;19937;-66
2023/04/08 05:38:04;;;;;;;;;;;4.10;99.90;;;;;;5005151;28;19928;-67
2023/04/08 05:40:30;;;;;;;;;;;4.10;99.90;;;;;;5006712;28;19922;-67
2023/04/08 05:42:57;;;;;;;;;;;4.10;99.90;;;;;;5006596;28;19993;-67
2023/04/08 05:45:25;;;;;;;;;;;4.20;99.90;;;;;;5005727;28;19928;-67
2023/04/08 05:47:52;;;;;;;;;;;4.10;99.90;;;;;;5000072;28;19922;-67
2023/04/08 05:50:18;;;;;;;;;;;4.20;99.90;;;;;;4986760;28;19986;-67
2023/04/08 05:52:45;;;;;;;;;;;4.20;99.90;;;;;;4992825;28;19984;-67
2023/04/08 05:55:12;;;;;;;;;;;4.20;99.90;;;;;;5005902;28;19922;-65
2023/04/08 05:57:38;;;;;;;;;;;4.20;99.90;;;;;;5005172;28;19928;-67
2023/04/08 06:00:07;;;;;;;;;;;4.30;99.90;;;;;;5006623;28;19981;-67
2023/04/08 06:02:35;;;;;;;;;;;4.30;99.90;;;;;;5006195;28;19928;-67
2023/04/08 06:05:05;;;;;;;;;;;4.30;99.90;;;;;;5003773;28;19922;-67
2023/04/08 06:07:32;;;;;;;;;;;4.40;99.90;;;;;;5003094;28;20090;-67
2023/04/08 06:09:58;;;;;;;;;;;4.40;99.90;;;;;;5006397;28;19921;-67
2023/04/08 06:12:25;;;;;;;;;;;4.50;99.90;;;;;;5006007;28;19988;-67
2023/04/08 06:14:54;;;;;;;;;;;4.50;99.90;;;;;;5006032;28;19989;-67
2023/04/08 06:17:20;;;;;;;;;;;4.50;99.90;;;;;;5005963;28;19921;-69
2023/04/08 06:19:48;;;;;;;;;;;4.60;99.90;;;;;;5006258;28;19985;-67
2023/04/08 06:22:15;;;;;;;;;;;4.60;99.90;;;;;;5003684;28;19928;-67
2023/04/08 06:24:41;;;;;;;;;;;4.60;99.90;;;;;;4999885;28;19981;-67
2023/04/08 06:27:08;;;;;;;;;;;4.70;99.90;;;;;;4993325;28;20263;-67
2023/04/08 06:29:35;;;;;;;;;;;4.70;99.90;;;;;;4986497;28;19964;-67
2023/04/08 06:32:01;;;;;;;;;;;4.70;99.90;;;;;;4999770;28;19922;-67
2023/04/08 06:34:28;;;;;;;;;;;4.80;99.90;;;;;;5005705;28;19921;-67
2023/04/08 06:36:56;;;;;;;;;;;4.80;99.90;;;;;;5004521;28;19992;-67
2023/04/08 06:39:23;;;;;;;;;;;4.80;99.90;;;;;;5005861;28;19993;-67
2023/04/08 06:41:49;;;;;;;;;;;4.90;99.90;;;;;;5005635;28;19976;-67
2023/04/08 06:44:16;;;;;;;;;;;4.90;99.90;;;;;;5005833;28;19922;-66
2023/04/08 06:46:43;;;;;;;;;;;5.00;99.90;;;;;;4993449;28;19965;-68
2023/04/08 06:49:09;;;;;;;;;;;5.00;99.90;;;;;;4986342;28;19949;-67
2023/04/08 06:51:36;;;;;;;;;;;5.10;99.90;;;;;;4986068;28;20109;-67
2023/04/08 06:54:04;;;;;;;;;;;5.10;99.90;;;;;;4985600;28;20236;-67
2023/04/08 06:56:31;;;;;;;;;;;5.20;99.90;;;;;;4985120;28;19922;-67
2023/04/08 06:58:58;;;;;;;;;;;5.30;99.90;;;;;;4985665;28;19929;-66
2023/04/08 07:01:24;;;;;;;;;;;5.30;99.90;;;;;;5000470;28;19921;-67
2023/04/08 07:03:51;;;;;;;;;;;5.30;99.90;;;;;;4999419;28;19982;-67
2023/04/08 07:06:18;;;;;;;;;;;5.50;99.90;;;;;;4993893;28;19961;-66
2023/04/08 07:08:44;;;;;;;;;;;5.50;99.90;;;;;;4985690;28;19993;-67
2023/04/08 07:11:12;;;;;;;;;;;5.60;99.90;;;;;;4985603;28;19922;-67
2023/04/08 07:13:39;;;;;;;;;;;5.60;99.90;;;;;;4985424;28;20169;-67
2023/04/08 07:16:06;;;;;;;;;;;5.60;99.90;;;;;;4985255;28;19957;-67
2023/04/08 07:18:32;;;;;;;;;;;5.70;99.90;;;;;;4985465;28;19954;-67
2023/04/08 07:20:59;;;;;;;;;;;5.70;99.90;;;;;;4985341;28;20062;-67
2023/04/08 07:23:26;;;;;;;;;;;5.80;99.90;;;;;;5000504;28;19922;-69
2023/04/08 07:25:53;;;;;;;;;;;5.90;99.90;;;;;;4984870;28;20241;-67
2023/04/08 07:28:21;;;;;;;;;;;5.90;99.90;;;;;;4985194;28;19981;-69
2023/04/08 07:30:47;;;;;;;;;;;5.90;99.90;;;;;;4985630;28;19922;-67
2023/04/08 07:33:14;;;;;;;;;;;5.90;99.90;;;;;;4985283;28;19977;-68
2023/04/08 07:35:41;;;;;;;;;;;5.80;99.90;;;;;;4984975;28;19929;-68
2023/04/08 07:38:10;;;;;;;;;;;5.80;99.90;;;;;;4985232;28;19965;-68
2023/04/08 07:40:37;;;;;;;;;;;5.80;99.90;;;;;;4985253;28;20162;-68
2023/04/08 07:43:03;;;;;;;;;;;5.80;99.90;;;;;;4984917;28;19929;-67
2023/04/08 07:45:31;;;;;;;;;;;5.80;99.90;;;;;;4985019;28;19964;-68
2023/04/08 07:47:59;;;;;;;;;;;5.80;99.90;;;;;;4983650;28;20210;-68
2023/04/08 07:50:25;;;;;;;;;;;5.70;99.90;;;;;;4985189;28;19922;-67
2023/04/08 07:52:53;;;;;;;;;;;5.70;99.90;;;;;;4984976;28;19992;-70
2023/04/08 07:55:19;;;;;;;;;;;5.60;99.90;;;;;;4984750;28;19965;-69
2023/04/08 07:57:46;;;;;;;;;;;5.50;99.90;;;;;;4984387;28;19926;-67
2023/04/08 08:00:19;;;;;;;;;;;5.50;99.90;;;;;;5003173;28;19921;-67
2023/04/08 08:02:47;;;;;;;;;;;5.40;99.90;;;;;;5004091;28;19922;-67
2023/04/08 08:05:14;;;;;;;;;;;5.40;99.90;;;;;;5004307;28;19922;-67
2023/04/08 08:07:41;;;;;;;;;;;5.40;99.90;;;;;;5003650;28;19994;-67
2023/04/08 08:10:08;;;;;;;;;;;5.30;99.90;;;;;;5004280;28;20151;-67
2023/04/08 08:12:35;;;;;;;;;;;5.30;99.90;;;;;;5004093;28;19960;-67
2023/04/08 08:15:01;;;;;;;;;;;5.30;99.90;;;;;;5003745;28;19949;-67
2023/04/08 08:17:29;;;;;;;;;;;5.30;99.90;;;;;;5003830;28;19985;-67
2023/04/08 08:19:57;;;;;;;;;;;5.40;99.90;;;;;;5004120;28;19965;-67
2023/04/08 08:22:24;;;;;;;;;;;5.30;99.90;;;;;;5004147;28;19928;-67
2023/04/08 08:24:55;;;;;;;;;;;5.30;99.90;;;;;;5003886;28;19957;-66
2023/04/08 08:27:21;;;;;;;;;;;5.30;99.90;;;;;;5003820;28;19922;-68
2023/04/08 08:29:48;;;;;;;;;;;5.30;99.90;;;;;;5004168;28;19973;-67
2023/04/08 08:32:15;;;;;;;;;;;5.30;99.90;;;;;;5003909;28;20199;-67
2023/04/08 08:34:41;;;;;;;;;;;5.30;99.90;;;;;;5004046;28;20012;-67
2023/04/08 08:37:09;;;;;;;;;;;5.30;99.90;;;;;;5005942;28;19990;-67
2023/04/08 08:39:36;;;;;;;;;;;5.30;99.90;;;;;;5005223;28;20201;-67
2023/04/08 08:42:03;;;;;;;;;;;5.30;99.90;;;;;;5003723;28;20205;-67
2023/04/08 08:44:34;;;;;;;;;;;5.30;99.90;;;;;;5001149;28;19992;-67
2023/04/08 08:47:01;;;;;;;;;;;5.20;99.90;;;;;;5003274;28;19949;-67
2023/04/08 08:49:28;;;;;;;;;;;5.30;99.90;;;;;;5003519;28;19981;-67
2023/04/08 08:51:55;;;;;;;;;;;5.30;99.90;;;;;;5003454;28;19966;-66
2023/04/08 08:54:23;;;;;;;;;;;5.30;99.90;;;;;;5000739;28;20000;-67
2023/04/08 08:56:49;;;;;;;;;;;5.40;99.90;;;;;;5002473;28;19928;-67
2023/04/08 08:59:20;;;;;;;;;;;5.40;99.90;;;;;;5002879;28;20153;-66
2023/04/08 09:01:49;;;;;;;;;;;5.40;99.90;;;;;;5002867;28;19928;-67
2023/04/08 09:04:17;;;;;;;;;;;5.40;99.90;;;;;;5002367;28;19946;-66
2023/04/08 09:06:44;;;;;;;;;;;5.40;99.90;;;;;;5003416;28;19968;-67
2023/04/08 09:09:11;;;;;;;;;;;5.30;99.90;;;;;;5002877;28;20095;-67
2023/04/08 09:11:39;;;;;;;;;;;5.30;99.90;;;;;;5003559;28;19968;-66
2023/04/08 09:14:06;;;;;;;;;;;5.30;99.90;;;;;;5003350;28;19928;-67
2023/04/08 09:16:33;;;;;;;;;;;5.30;99.90;;;;;;5002643;28;19926;-67
2023/04/08 09:19:08;;;;;;;;;;;5.30;99.90;;;;;;5001718;28;19993;-67
2023/04/08 09:21:35;;;;;;;;;;;5.30;99.90;;;;;;5003146;28;19989;-66
2023/04/08 09:24:01;;;;;;;;;;;5.30;99.90;;;;;;5003271;28;19922;-67
2023/04/08 09:26:28;;;;;;;;;;;5.40;99.90;;;;;;5001023;28;19922;-67
2023/04/08 09:28:59;;;;;;;;;;;5.40;99.90;;;;;;5007190;28;19928;-67
2023/04/08 09:31:27;;;;;;;;;;;5.40;99.90;;;;;;5006834;28;20260;-66
2023/04/08 09:33:54;;;;;;;;;;;5.40;99.90;;;;;;5006600;28;19929;-69
2023/04/08 09:36:25;;;;;;;;;;;5.40;99.90;;;;;;5006059;28;19928;-67
2023/04/08 09:38:52;;;;;;;;;;;5.50;99.90;;;;;;5007118;28;19937;-67
2023/04/08 09:41:22;;;;;;;;;;;5.50;99.90;;;;;;5007067;28;19921;-67
2023/04/08 09:43:50;;;;;;;;;;;5.50;99.90;;;;;;5006777;28;20225;-67
2023/04/08 09:46:19;;;;;;;;;;;5.60;99.90;;;;;;5005697;28;19943;-67
2023/04/08 09:48:55;;;;;;;;;;;5.60;99.90;;;;;;5003916;28;19922;-67
2023/04/08 09:51:22;;;;;;;;;;;5.70;99.90;;;;;;5006444;28;19921;-67
2023/04/08 09:53:54;;;;;;;;;;;5.80;99.90;;;;;;5006810;28;19985;-67
2023/04/08 09:56:21;;;;;;;;;;;5.80;99.90;;;;;;5006377;28;19961;-67
2023/04/08 09:58:51;;;;;;;;;;;5.90;99.90;;;;;;5006521;28;19945;-67
2023/04/08 10:01:22;;;;;;;;;;;6.00;99.90;;;;;;5006673;28;19985;-67
2023/04/08 10:03:51;;;;;;;;;;;6.00;99.90;;;;;;5006180;28;19922;-67
2023/04/08 10:06:20;;;;;;;;;;;6.10;99.90;;;;;;5005593;28;19922;-67
2023/04/08 10:08:46;;;;;;;;;;;6.10;99.90;;;;;;5006219;28;19922;-67
2023/04/08 10:11:14;;;;;;;;;;;6.10;99.90;;;;;;5006123;28;19996;-66
2023/04/08 10:13:41;;;;;;;;;;;6.10;99.90;;;;;;5006065;28;20170;-67
2023/04/08 10:16:19;;;;;;;;;;;6.10;99.90;;;;;;5005839;28;19921;-67
2023/04/08 10:18:46;;;;;;;;;;;6.10;99.90;;;;;;5005889;28;19922;-67
2023/04/08 10:21:31;;;;;;;;;;;6.10;99.90;;;;;;5006267;28;19985;-67
2023/04/08 10:24:00;;;;;;;;;;;6.20;99.90;;;;;;5004897;28;20153;-67
2023/04/08 10:26:30;;;;;;;;;;;6.20;99.90;;;;;;5002624;28;20113;-67
2023/04/08 10:29:24;;;;;;;;;;;6.20;99.90;;;;;;5006346;28;19936;-67
2023/04/08 10:31:52;;;;;;;;;;;6.30;99.90;;;;;;5005780;28;19922;-67
2023/04/08 10:34:20;;;;;;;;;;;6.30;99.90;;;;;;5006164;28;19957;-67
2023/04/08 10:36:47;;;;;;;;;;;6.40;99.90;;;;;;5004995;28;19922;-67
2023/04/08 10:39:15;;;;;;;;;;;6.30;99.90;;;;;;5005555;28;19921;-67
2023/04/08 10:41:42;;;;;;;;;;;6.30;99.90;;;;;;5005945;28;19968;-67
2023/04/08 10:44:19;;;;;;;;;;;6.40;99.90;;;;;;5005039;28;19921;-67
2023/04/08 10:46:47;;;;;;;;;;;6.40;99.90;;;;;;5000564;28;19922;-66
2023/04/08 10:49:15;;;;;;;;;;;6.40;99.90;;;;;;5003657;28;19922;-69
2023/04/08 10:51:43;;;;;;;;;;;6.40;99.90;;;;;;5004411;28;19945;-68
2023/04/08 10:54:10;;;;;;;;;;;6.40;99.90;;;;;;5002245;28;19989;-68
2023/04/08 10:56:43;;;;;;;;;;;6.30;99.90;;;;;;5001656;28;19934;-68
2023/04/08 10:59:10;;;;;;;;;;;6.30;99.90;;;;;;5005182;28;19997;-68
2023/04/08 11:01:40;;;;;;;;;;;6.30;99.90;;;;;;5005416;28;19929;-67
2023/04/08 11:04:12;;;;;;;;;;;6.30;99.90;;;;;;5005247;28;19928;-68
2023/04/08 11:06:41;;;;;;;;;;;6.30;99.90;;;;;;5000136;28;19929;-67
2023/04/08 11:09:08;;;;;;;;;;;6.30;99.90;;;;;;4992849;28;20265;-67
2023/04/08 11:11:35;;;;;;;;;;;6.30;99.90;;;;;;4998323;28;19922;-67
2023/04/08 11:14:02;;;;;;;;;;;6.20;99.90;;;;;;5004513;28;20239;-67
2023/04/08 11:16:29;;;;;;;;;;;6.20;99.90;;;;;;4995427;28;19961;-67
2023/04/08 11:18:55;;;;;;;;;;;6.20;99.90;;;;;;4989130;28;19934;-67
2023/04/08 11:21:23;;;;;;;;;;;6.20;99.90;;;;;;5005075;28;19922;-67
2023/04/08 11:23:51;;;;;;;;;;;6.30;99.90;;;;;;5003444;28;20061;-67
2023/04/08 11:26:18;;;;;;;;;;;6.30;99.90;;;;;;5004480;28;19984;-68
2023/04/08 11:28:45;;;;;;;;;;;6.30;99.90;;;;;;5004658;28;20121;-68
2023/04/08 11:31:12;;;;;;;;;;;6.30;99.90;;;;;;5004683;28;20214;-68
2023/04/08 11:33:44;;;;;;;;;;;6.30;99.90;;;;;;5004726;28;19981;-69
2023/04/08 11:36:12;;;;;;;;;;;6.40;99.90;;;;;;5002914;28;19973;-67
2023/04/08 11:38:39;;;;;;;;;;;6.40;99.90;;;;;;5003793;28;19928;-67
2023/04/08 11:41:07;;;;;;;;;;;6.40;99.90;;;;;;5004764;28;19926;-67
2023/04/08 11:43:35;;;;;;;;;;;6.40;99.90;;;;;;5004119;28;20170;-67
2023/04/08 11:46:08;;;;;;;;;;;6.40;99.90;;;;;;4984460;28;19945;-65
2023/04/08 11:48:35;;;;;;;;;;;6.40;99.90;;;;;;4984601;28;19985;-67
2023/04/08 11:51:03;;;;;;;;;;;6.50;99.90;;;;;;4985096;28;19922;-66
2023/04/08 11:53:30;;;;;;;;;;;6.70;99.90;;;;;;4993060;28;20137;-67
2023/04/08 11:55:56;;;;;;;;;;;6.80;99.90;;;;;;5004072;28;19928;-67
2023/04/08 11:58:24;;;;;;;;;;;6.90;99.90;;;;;;5004028;28;20000;-67
2023/04/08 12:00:51;;;;;;;;;;;7.00;99.90;;;;;;5004263;28;19925;-67
2023/04/08 12:03:17;;;;;;;;;;;7.10;99.90;;;;;;5004276;28;19985;-68
2023/04/08 12:05:45;;;;;;;;;;;7.00;99.90;;;;;;5003735;28;19957;-67
2023/04/08 12:08:11;;;;;;;;;;;7.10;99.90;;;;;;5004378;28;19922;-67
2023/04/08 12:10:38;;;;;;;;;;;7.00;99.90;;;;;;5003995;28;20009;-67
2023/04/08 12:13:05;;;;;;;;;;;7.00;99.90;;;;;;5004228;28;19921;-66
2023/04/08 12:15:33;;;;;;;;;;;7.00;99.90;;;;;;5004110;28;19925;-67
2023/04/08 12:18:00;;;;;;;;;;;7.00;99.90;;;;;;5000226;28;19929;-68
2023/04/08 12:20:26;;;;;;;;;;;7.00;99.90;;;;;;5003819;28;19922;-66
2023/04/08 12:22:53;;;;;;;;;;;7.00;99.90;;;;;;5004078;28;19988;-67
2023/04/08 12:25:20;;;;;;;;;;;7.00;99.90;;;;;;5004021;28;20164;-68
2023/04/08 12:27:47;;;;;;;;;;;7.00;99.90;;;;;;5003809;28;20277;-68
2023/04/08 12:30:13;;;;;;;;;;;7.00;99.90;;;;;;5003708;28;20221;-70
2023/04/08 12:32:44;;;;;;;;;;;6.90;99.90;;;;;;5003787;28;19993;-67
2023/04/08 12:35:10;;;;;;;;;;;6.90;99.90;;;;;;5003931;28;20141;-67
2023/04/08 12:37:37;;;;;;;;;;;6.90;99.90;;;;;;5002942;28;19953;-67
2023/04/08 12:40:04;;;;;;;;;;;6.90;99.90;;;;;;5003829;28;19994;-67
2023/04/08 12:42:32;;;;;;;;;;;7.00;99.90;;;;;;5003456;28;20202;-65
2023/04/08 12:44:58;;;;;;;;;;;7.00;99.90;;;;;;5003431;28;19993;-67
2023/04/08 12:47:25;;;;;;;;;;;7.10;99.90;;;;;;5003370;28;19960;-67
2023/04/08 12:49:53;;;;;;;;;;;7.00;99.90;;;;;;5003641;28;20005;-66
2023/04/08 12:52:19;;;;;;;;;;;7.10;99.90;;;;;;5003841;28;19981;-67
2023/04/08 12:54:46;;;;;;;;;;;7.10;99.90;;;;;;5003745;28;19989;-67
2023/04/08 12:57:13;;;;;;;;;;;7.20;99.90;;;;;;5003352;28;20178;-67
2023/04/08 12:59:39;;;;;;;;;;;7.20;99.90;;;;;;5003184;28;19994;-68
2023/04/08 13:02:06;;;;;;;;;;;7.10;99.90;;;;;;5006223;28;19928;-67
2023/04/08 13:04:33;;;;;;;;;;;7.20;99.90;;;;;;5007693;28;19993;-67
2023/04/08 13:07:01;;;;;;;;;;;7.30;99.90;;;;;;5006651;28;19928;-67
2023/04/08 13:09:29;;;;;;;;;;;7.30;99.90;;;;;;5007251;28;19921;-67
2023/04/08 13:11:56;;;;;;;;;;;7.30;99.90;;;;;;5006578;28;19928;-67
2023/04/08 13:14:23;;;;;;;;;;;7.30;99.90;;;;;;5005276;28;19922;-71
2023/04/08 13:16:50;;;;;;;;;;;7.20;99.90;;;;;;5006675;28;19984;-67
2023/04/08 13:19:16;;;;;;;;;;;7.30;99.90;;;;;;5006978;28;19922;-66
2023/04/08 13:21:44;;;;;;;;;;;7.30;99.90;;;;;;5006682;28;19953;-67
2023/04/08 13:24:14;;;;;;;;;;;7.30;99.90;;;;;;5003130;28;19929;-67
2023/04/08 13:26:40;;;;;;;;;;;7.30;99.90;;;;;;5006078;28;19928;-67
2023/04/08 13:29:07;;;;;;;;;;;7.40;99.90;;;;;;5004185;28;19960;-67
2023/04/08 13:31:34;;;;;;;;;;;7.40;99.90;;;;;;5004391;28;19985;-67
2023/04/08 13:34:00;;;;;;;;;;;7.40;99.90;;;;;;5006771;28;19922;-68
2023/04/08 13:36:27;;;;;;;;;;;7.40;99.90;;;;;;5006345;28;20012;-66
2023/04/08 13:38:54;;;;;;;;;;;7.40;99.90;;;;;;5006794;28;19961;-66
2023/04/08 13:41:24;;;;;;;;;;;7.40;99.90;;;;;;5004976;28;19922;-67
2023/04/08 13:43:50;;;;;;;;;;;7.30;99.90;;;;;;5003443;28;20221;-67
2023/04/08 13:46:17;;;;;;;;;;;7.40;99.90;;;;;;5006612;28;19943;-65
2023/04/08 13:48:44;;;;;;;;;;;7.40;99.90;;;;;;5006437;28;20237;-67
2023/04/08 13:51:11;;;;;;;;;;;7.60;99.90;;;;;;5006897;28;20202;-67
2023/04/08 13:53:39;;;;;;;;;;;7.60;99.90;;;;;;5003841;28;19993;-67
2023/04/08 13:56:05;;;;;;;;;;;7.60;99.90;;;;;;5006220;28;20128;-65
2023/04/08 13:58:33;;;;;;;;;;;7.70;99.90;;;;;;5006065;28;19954;-68
2023/04/08 14:01:00;;;;;;;;;;;7.70;99.90;;;;;;5006757;28;20253;-67
2023/04/08 14:03:27;;;;;;;;;;;7.70;99.90;;;;;;5006093;28;19929;-67
2023/04/08 14:05:54;;;;;;;;;;;7.70;99.90;;;;;;5005674;28;19928;-66
2023/04/08 14:08:24;;;;;;;;;;;7.70;99.90;;;;;;5005607;28;19968;-67
2023/04/08 14:10:50;;;;;;;;;;;7.70;99.90;;;;;;5006617;28;19929;-68
2023/04/08 14:13:17;;;;;;;;;;;7.70;99.90;;;;;;5004464;28;19985;-67
2023/04/08 14:15:45;;;;;;;;;;;7.70;99.90;;;;;;5003940;28;19921;-67
2023/04/08 14:18:12;;;;;;;;;;;7.70;99.90;;;;;;5005786;28;20021;-71
2023/04/08 14:20:39;;;;;;;;;;;7.70;99.90;;;;;;5005115;28;19945;-69
2023/04/08 14:23:05;;;;;;;;;;;7.70;99.90;;;;;;5005885;28;19981;-67
2023/04/08 14:25:32;;;;;;;;;;;7.70;99.90;;;;;;5005868;28;20190;-69
2023/04/08 14:27:58;;;;;;;;;;;7.70;99.90;;;;;;5005600;28;19928;-67
2023/04/08 14:30:25;;;;;;;;;;;7.70;99.90;;;;;;5005678;28;19989;-68
2023/04/08 14:32:53;;;;;;;;;;;7.70;99.90;;;;;;5002348;28;19922;-67